Lawson Army Air Field (Fort Benning)
KLSF : now visible

Airfield :











YOU CAN JOIN US ON...

 
LOGIN :

Register | Disclaimer

   EN    FR    IT 

 









Legend :    VFR   Marginal VFR   IFR   Intensive IFR   Very Intensive IFR
Visi :
Ceiling :
>= 8 km
>= 3000ft
5 to 8 km
1000 to 3000 ft
1500m to 5 km
500 to 1000 ft
800 to 1500m
200 to 500 ft
< 800m
< 200 ft
Symbols :   Thunderstorms  Fog  Heavy snow  Heavy precipitations  Wind > 20 kt







- Airport Elevation : 232 ft


KLSF - Lawson Army Air Field (Fort Benning)

CURRENT METAR :
  • 210456Z AUTO 33004KT 10SM SCT003 16/16 A3023 RMK AO2 SLP241 T01610161 403170130

EXPIRED METARs :
  • 210416Z AUTO 00000KT 10SM OVC004 17/16 A3022 RMK AO2 OVC V BKN SLP237
  • 210401Z AUTO 00000KT 10SM BKN005 16/16 A3022 RMK AO2 BKN V SCT CIG 003 RWY33 SLP237
  • 210356Z AUTO 12003KT 10SM SCT005 16/16 A3022 RMK AO2 SLP237 T01620162
  • 210256Z AUTO 00000KT 10SM CLR 17/17 A3020 RMK AO2 SLP230 T01740167 52011

TAF TAF KLSF
Valid from the 21 at 01:00 until the 22 at 07:00 UTC


210100Z 2101/2207 09009KT 9999 SCT055 QNH3015INS
BECMG 2111/2112 VRB06KT 4800 BR SCT005 QNH3028INS
BECMG 2114/2115 10012KT 9999 NSW SCT040 QNH3014INS TX32/2120Z TN19/2112Z LAST NO AMDS AFT 2203 NEXT 2409
No reported NOTAMs for that airfield.



MET'MAP, your aeronautical weather chart ! - Copyright ORBIFLY December 2007 - Disclaimer

ORBIFLY MET'MAP TEAM :

Programming & Development : Alexandra Zaïnal
Concept & Development : Baudouin d'Aumeries
Co-Development & Prog : Marc-Olivier Méhu
Technical & hardware support : Manuel Goepfert

Contact : metmap@orbifly.com




SOURCES & CREDITS :

   NOAA       Earth
Advisory